Haaltert, Belgium
Current Conditions -  °F | °C
As of 6:20 PM on Sunday 21 Dec 2014 (Local Time) from EBBR Reporting Station
Light Rain Light Rain  
Wind Chill: 37°   Ceiling: 900
Heat Index: 45°   Visibility: 4mi
Dew Point: 43°   Wind: 18mph
Humidity: 93%   Direction: 240°WSW
Pressure: 30.3"   Gusts: 30mph
Location:  50.91°N, 4°E
Report Text: EBBR 211720Z 24016G26KT 6000 -DZRA SCT007 BKN009 07/06 Q1026 TEMPO 23018G30KT 4500 DZRA
Loading
Personal Weather Stations






























Interactive Weather Map New forecast layout! Learn more

10-Day Weather Forecast

Advertisements
Track Severe Weather on mobile